sensor_id;sensor_type;location;lat;lon;timestamp;P1;durP1;ratioP1;P2;durP2;ratioP2
64029;SDS011;50277;52.064;4.492;2022-10-16T00:01:21;3.28;;;1.80;;
64029;SDS011;50277;52.064;4.492;2022-10-16T00:03:48;3.83;;;1.90;;
64029;SDS011;50277;52.064;4.492;2022-10-16T00:06:14;2.28;;;1.45;;
64029;SDS011;50277;52.064;4.492;2022-10-16T00:08:41;4.78;;;2.03;;
64029;SDS011;50277;52.064;4.492;2022-10-16T00:11:07;3.72;;;1.70;;
64029;SDS011;50277;52.064;4.492;2022-10-16T00:13:35;8.15;;;1.40;;
64029;SDS011;50277;52.064;4.492;2022-10-16T00:16:01;2.47;;;1.60;;
64029;SDS011;50277;52.064;4.492;2022-10-16T00:18:27;5.97;;;1.50;;
64029;SDS011;50277;52.064;4.492;2022-10-16T00:20:53;1.60;;;1.20;;
64029;SDS011;50277;52.064;4.492;2022-10-16T00:23:19;3.05;;;1.35;;
64029;SDS011;50277;52.064;4.492;2022-10-16T00:25:44;4.63;;;1.65;;
64029;SDS011;50277;52.064;4.492;2022-10-16T00:28:10;4.78;;;1.50;;
64029;SDS011;50277;52.064;4.492;2022-10-16T00:30:39;4.38;;;1.20;;
64029;SDS011;50277;52.064;4.492;2022-10-16T00:33:05;6.05;;;1.30;;
64029;SDS011;50277;52.064;4.492;2022-10-16T00:35:30;4.55;;;1.10;;
64029;SDS011;50277;52.064;4.492;2022-10-16T00:37:56;1.10;;;1.00;;
64029;SDS011;50277;52.064;4.492;2022-10-16T00:40:21;3.05;;;1.27;;
64029;SDS011;50277;52.064;4.492;2022-10-16T00:42:46;2.92;;;1.38;;
64029;SDS011;50277;52.064;4.492;2022-10-16T00:45:12;1.98;;;1.10;;
64029;SDS011;50277;52.064;4.492;2022-10-16T00:47:42;1.55;;;0.88;;
64029;SDS011;50277;52.064;4.492;2022-10-16T00:52:53;0.90;;;0.90;;
64029;SDS011;50277;52.064;4.492;2022-10-16T00:55:19;0.90;;;0.80;;
64029;SDS011;50277;52.064;4.492;2022-10-16T00:57:44;3.22;;;0.95;;
64029;SDS011;50277;52.064;4.492;2022-10-16T01:00:11;1.58;;;0.85;;
64029;SDS011;50277;52.064;4.492;2022-10-16T01:02:38;1.00;;;0.93;;
64029;SDS011;50277;52.064;4.492;2022-10-16T01:05:04;1.88;;;1.30;;
64029;SDS011;50277;52.064;4.492;2022-10-16T01:07:48;2.72;;;1.20;;
64029;SDS011;50277;52.064;4.492;2022-10-16T01:12:59;3.80;;;1.13;;
64029;SDS011;50277;52.064;4.492;2022-10-16T01:15:46;1.67;;;1.17;;
64029;SDS011;50277;52.064;4.492;2022-10-16T01:18:16;5.68;;;1.27;;
64029;SDS011;50277;52.064;4.492;2022-10-16T01:20:45;3.30;;;1.13;;
64029;SDS011;50277;52.064;4.492;2022-10-16T01:23:27;2.28;;;1.45;;
64029;SDS011;50277;52.064;4.492;2022-10-16T01:31:33;1.27;;;1.15;;
64029;SDS011;50277;52.064;4.492;2022-10-16T01:34:03;5.22;;;1.65;;
64029;SDS011;50277;52.064;4.492;2022-10-16T01:36:34;1.50;;;1.40;;
64029;SDS011;50277;52.064;4.492;2022-10-16T01:39:02;2.65;;;1.30;;
64029;SDS011;50277;52.064;4.492;2022-10-16T01:41:30;4.00;;;1.50;;
64029;SDS011;50277;52.064;4.492;2022-10-16T01:44:02;2.95;;;1.33;;
64029;SDS011;50277;52.064;4.492;2022-10-16T01:46:28;1.90;;;1.40;;
64029;SDS011;50277;52.064;4.492;2022-10-16T01:48:55;3.95;;;1.25;;
64029;SDS011;50277;52.064;4.492;2022-10-16T01:51:21;6.00;;;1.63;;
64029;SDS011;50277;52.064;4.492;2022-10-16T01:53:49;2.10;;;1.60;;
64029;SDS011;50277;52.064;4.492;2022-10-16T01:56:18;1.95;;;1.35;;
64029;SDS011;50277;52.064;4.492;2022-10-16T01:58:47;2.40;;;1.38;;
64029;SDS011;50277;52.064;4.492;2022-10-16T02:01:15;1.30;;;1.20;;
64029;SDS011;50277;52.064;4.492;2022-10-16T02:06:08;4.53;;;1.40;;
64029;SDS011;50277;52.064;4.492;2022-10-16T02:08:34;3.28;;;1.45;;
64029;SDS011;50277;52.064;4.492;2022-10-16T02:11:00;2.95;;;1.52;;
64029;SDS011;50277;52.064;4.492;2022-10-16T02:13:30;2.35;;;1.10;;
64029;SDS011;50277;52.064;4.492;2022-10-16T02:15:58;3.42;;;1.35;;
64029;SDS011;50277;52.064;4.492;2022-10-16T02:18:24;7.65;;;1.50;;
64029;SDS011;50277;52.064;4.492;2022-10-16T02:20:58;2.25;;;1.42;;
64029;SDS011;50277;52.064;4.492;2022-10-16T02:26:56;2.15;;;1.42;;
64029;SDS011;50277;52.064;4.492;2022-10-16T02:29:26;3.50;;;1.45;;
64029;SDS011;50277;52.064;4.492;2022-10-16T02:31:56;7.15;;;1.75;;
64029;SDS011;50277;52.064;4.492;2022-10-16T02:34:24;2.10;;;1.45;;
64029;SDS011;50277;52.064;4.492;2022-10-16T02:36:50;2.95;;;1.75;;
64029;SDS011;50277;52.064;4.492;2022-10-16T02:39:17;2.72;;;1.63;;
64029;SDS011;50277;52.064;4.492;2022-10-16T02:41:43;3.90;;;2.00;;
64029;SDS011;50277;52.064;4.492;2022-10-16T02:44:08;2.67;;;1.80;;
64029;SDS011;50277;52.064;4.492;2022-10-16T02:46:33;2.72;;;1.70;;
64029;SDS011;50277;52.064;4.492;2022-10-16T02:48:59;4.10;;;1.70;;
64029;SDS011;50277;52.064;4.492;2022-10-16T02:51:24;3.72;;;1.27;;
64029;SDS011;50277;52.064;4.492;2022-10-16T02:53:49;3.30;;;1.65;;
64029;SDS011;50277;52.064;4.492;2022-10-16T02:56:15;4.50;;;1.50;;
64029;SDS011;50277;52.064;4.492;2022-10-16T02:58:40;1.73;;;1.52;;
64029;SDS011;50277;52.064;4.492;2022-10-16T03:01:05;2.85;;;1.60;;
64029;SDS011;50277;52.064;4.492;2022-10-16T03:03:31;1.92;;;1.45;;
64029;SDS011;50277;52.064;4.492;2022-10-16T03:05:56;2.80;;;1.55;;
64029;SDS011;50277;52.064;4.492;2022-10-16T03:08:22;2.30;;;1.35;;
64029;SDS011;50277;52.064;4.492;2022-10-16T03:10:50;4.60;;;1.65;;
64029;SDS011;50277;52.064;4.492;2022-10-16T03:13:15;1.83;;;1.13;;
64029;SDS011;50277;52.064;4.492;2022-10-16T03:15:41;2.78;;;1.55;;
64029;SDS011;50277;52.064;4.492;2022-10-16T03:18:06;6.35;;;1.60;;
64029;SDS011;50277;52.064;4.492;2022-10-16T03:20:32;7.15;;;1.42;;
64029;SDS011;50277;52.064;4.492;2022-10-16T03:22:57;1.65;;;1.48;;
64029;SDS011;50277;52.064;4.492;2022-10-16T03:25:23;2.78;;;1.25;;
64029;SDS011;50277;52.064;4.492;2022-10-16T03:27:48;1.88;;;1.40;;
64029;SDS011;50277;52.064;4.492;2022-10-16T03:30:13;7.22;;;1.70;;
64029;SDS011;50277;52.064;4.492;2022-10-16T03:32:39;3.83;;;1.45;;
64029;SDS011;50277;52.064;4.492;2022-10-16T03:35:04;5.13;;;1.58;;
64029;SDS011;50277;52.064;4.492;2022-10-16T03:37:30;3.90;;;1.60;;
64029;SDS011;50277;52.064;4.492;2022-10-16T03:39:56;4.07;;;1.50;;
64029;SDS011;50277;52.064;4.492;2022-10-16T03:42:21;3.95;;;1.50;;
64029;SDS011;50277;52.064;4.492;2022-10-16T03:44:46;4.82;;;1.60;;
64029;SDS011;50277;52.064;4.492;2022-10-16T03:47:12;1.98;;;1.20;;
64029;SDS011;50277;52.064;4.492;2022-10-16T03:49:37;3.75;;;1.45;;
64029;SDS011;50277;52.064;4.492;2022-10-16T03:52:03;2.33;;;1.35;;
64029;SDS011;50277;52.064;4.492;2022-10-16T03:54:28;3.20;;;1.35;;
64029;SDS011;50277;52.064;4.492;2022-10-16T03:56:54;2.83;;;1.58;;
64029;SDS011;50277;52.064;4.492;2022-10-16T03:59:19;3.00;;;1.50;;
64029;SDS011;50277;52.064;4.492;2022-10-16T04:01:44;4.20;;;1.58;;
64029;SDS011;50277;52.064;4.492;2022-10-16T04:04:10;5.07;;;1.80;;
64029;SDS011;50277;52.064;4.492;2022-10-16T04:06:35;1.85;;;1.50;;
64029;SDS011;50277;52.064;4.492;2022-10-16T04:09:00;4.82;;;1.70;;
64029;SDS011;50277;52.064;4.492;2022-10-16T04:11:26;3.17;;;2.03;;
64029;SDS011;50277;52.064;4.492;2022-10-16T04:13:51;4.43;;;1.52;;
64029;SDS011;50277;52.064;4.492;2022-10-16T04:16:16;2.63;;;1.40;;
64029;SDS011;50277;52.064;4.492;2022-10-16T04:18:42;3.85;;;1.33;;
64029;SDS011;50277;52.064;4.492;2022-10-16T04:21:07;5.97;;;1.70;;
64029;SDS011;50277;52.064;4.492;2022-10-16T04:23:33;2.03;;;1.20;;
64029;SDS011;50277;52.064;4.492;2022-10-16T04:25:59;2.80;;;1.40;;
64029;SDS011;50277;52.064;4.492;2022-10-16T04:28:24;4.80;;;1.38;;
64029;SDS011;50277;52.064;4.492;2022-10-16T04:30:50;4.38;;;1.58;;
64029;SDS011;50277;52.064;4.492;2022-10-16T04:33:15;3.53;;;1.50;;
64029;SDS011;50277;52.064;4.492;2022-10-16T04:35:40;3.42;;;1.75;;
64029;SDS011;50277;52.064;4.492;2022-10-16T04:38:06;4.07;;;1.50;;
64029;SDS011;50277;52.064;4.492;2022-10-16T04:40:31;5.05;;;1.38;;
64029;SDS011;50277;52.064;4.492;2022-10-16T04:43:02;2.35;;;1.30;;
64029;SDS011;50277;52.064;4.492;2022-10-16T04:45:28;4.78;;;2.00;;
64029;SDS011;50277;52.064;4.492;2022-10-16T04:47:56;2.90;;;1.38;;
64029;SDS011;50277;52.064;4.492;2022-10-16T04:50:22;2.72;;;1.40;;
64029;SDS011;50277;52.064;4.492;2022-10-16T04:52:47;3.55;;;1.70;;
64029;SDS011;50277;52.064;4.492;2022-10-16T04:55:13;2.78;;;1.45;;
64029;SDS011;50277;52.064;4.492;2022-10-16T04:57:38;1.75;;;1.38;;
64029;SDS011;50277;52.064;4.492;2022-10-16T05:00:04;3.65;;;1.60;;
64029;SDS011;50277;52.064;4.492;2022-10-16T05:02:29;2.40;;;1.60;;
64029;SDS011;50277;52.064;4.492;2022-10-16T05:04:55;5.28;;;1.50;;
64029;SDS011;50277;52.064;4.492;2022-10-16T05:07:20;3.75;;;1.60;;
64029;SDS011;50277;52.064;4.492;2022-10-16T05:09:45;6.80;;;2.10;;
64029;SDS011;50277;52.064;4.492;2022-10-16T05:12:11;7.07;;;2.67;;
64029;SDS011;50277;52.064;4.492;2022-10-16T05:14:36;6.15;;;1.67;;
64029;SDS011;50277;52.064;4.492;2022-10-16T05:17:02;6.10;;;1.48;;
64029;SDS011;50277;52.064;4.492;2022-10-16T05:19:27;7.28;;;1.90;;
64029;SDS011;50277;52.064;4.492;2022-10-16T05:21:52;10.30;;;2.17;;
64029;SDS011;50277;52.064;4.492;2022-10-16T05:24:18;4.65;;;2.15;;
64029;SDS011;50277;52.064;4.492;2022-10-16T05:26:43;7.35;;;1.90;;
64029;SDS011;50277;52.064;4.492;2022-10-16T05:29:08;6.20;;;2.05;;
64029;SDS011;50277;52.064;4.492;2022-10-16T05:31:34;3.60;;;1.83;;
64029;SDS011;50277;52.064;4.492;2022-10-16T05:33:59;2.58;;;1.70;;
64029;SDS011;50277;52.064;4.492;2022-10-16T05:36:25;5.65;;;2.30;;
64029;SDS011;50277;52.064;4.492;2022-10-16T05:38:50;4.30;;;2.00;;
64029;SDS011;50277;52.064;4.492;2022-10-16T05:41:16;3.72;;;1.95;;
64029;SDS011;50277;52.064;4.492;2022-10-16T05:43:46;2.42;;;2.03;;
64029;SDS011;50277;52.064;4.492;2022-10-16T05:46:11;8.52;;;2.40;;
64029;SDS011;50277;52.064;4.492;2022-10-16T05:48:36;4.07;;;1.98;;
64029;SDS011;50277;52.064;4.492;2022-10-16T05:51:03;6.20;;;2.63;;
64029;SDS011;50277;52.064;4.492;2022-10-16T05:53:30;5.40;;;2.20;;
64029;SDS011;50277;52.064;4.492;2022-10-16T05:55:57;5.65;;;2.08;;
64029;SDS011;50277;52.064;4.492;2022-10-16T05:58:23;4.88;;;1.83;;
64029;SDS011;50277;52.064;4.492;2022-10-16T06:00:53;5.68;;;2.50;;
64029;SDS011;50277;52.064;4.492;2022-10-16T06:03:21;7.90;;;2.55;;
64029;SDS011;50277;52.064;4.492;2022-10-16T06:05:47;7.80;;;2.42;;
64029;SDS011;50277;52.064;4.492;2022-10-16T06:08:12;4.07;;;1.98;;
64029;SDS011;50277;52.064;4.492;2022-10-16T06:10:38;4.90;;;2.15;;
64029;SDS011;50277;52.064;4.492;2022-10-16T06:13:03;6.03;;;2.28;;
64029;SDS011;50277;52.064;4.492;2022-10-16T06:15:28;4.15;;;2.00;;
64029;SDS011;50277;52.064;4.492;2022-10-16T06:17:54;7.30;;;2.05;;
64029;SDS011;50277;52.064;4.492;2022-10-16T06:20:19;8.23;;;2.45;;
64029;SDS011;50277;52.064;4.492;2022-10-16T06:22:44;4.88;;;2.10;;
64029;SDS011;50277;52.064;4.492;2022-10-16T06:25:10;10.00;;;2.30;;
64029;SDS011;50277;52.064;4.492;2022-10-16T06:27:35;3.42;;;2.08;;
64029;SDS011;50277;52.064;4.492;2022-10-16T06:30:00;5.60;;;1.88;;
64029;SDS011;50277;52.064;4.492;2022-10-16T06:32:27;4.05;;;1.88;;
64029;SDS011;50277;52.064;4.492;2022-10-16T06:34:52;2.67;;;1.80;;
64029;SDS011;50277;52.064;4.492;2022-10-16T06:37:17;10.48;;;2.13;;
64029;SDS011;50277;52.064;4.492;2022-10-16T06:39:43;4.72;;;1.85;;
64029;SDS011;50277;52.064;4.492;2022-10-16T06:42:08;6.10;;;2.05;;
64029;SDS011;50277;52.064;4.492;2022-10-16T06:44:33;2.95;;;1.67;;
64029;SDS011;50277;52.064;4.492;2022-10-16T06:46:59;6.75;;;1.77;;
64029;SDS011;50277;52.064;4.492;2022-10-16T06:49:24;4.50;;;1.77;;
64029;SDS011;50277;52.064;4.492;2022-10-16T06:51:49;4.40;;;1.92;;
64029;SDS011;50277;52.064;4.492;2022-10-16T06:54:15;9.90;;;2.50;;
64029;SDS011;50277;52.064;4.492;2022-10-16T06:56:41;10.10;;;2.20;;
64029;SDS011;50277;52.064;4.492;2022-10-16T06:59:06;4.95;;;1.58;;
64029;SDS011;50277;52.064;4.492;2022-10-16T07:01:32;6.80;;;1.80;;
64029;SDS011;50277;52.064;4.492;2022-10-16T07:03:57;7.82;;;2.72;;
64029;SDS011;50277;52.064;4.492;2022-10-16T07:06:23;9.38;;;2.30;;
64029;SDS011;50277;52.064;4.492;2022-10-16T07:08:50;8.90;;;2.13;;
64029;SDS011;50277;52.064;4.492;2022-10-16T07:11:20;5.50;;;2.10;;
64029;SDS011;50277;52.064;4.492;2022-10-16T07:13:47;5.55;;;1.98;;
64029;SDS011;50277;52.064;4.492;2022-10-16T07:16:13;8.00;;;2.25;;
64029;SDS011;50277;52.064;4.492;2022-10-16T07:18:41;5.63;;;2.00;;
64029;SDS011;50277;52.064;4.492;2022-10-16T07:21:12;6.55;;;2.45;;
64029;SDS011;50277;52.064;4.492;2022-10-16T07:23:39;6.53;;;2.20;;
64029;SDS011;50277;52.064;4.492;2022-10-16T07:26:05;3.60;;;1.60;;
64029;SDS011;50277;52.064;4.492;2022-10-16T07:28:31;5.43;;;1.73;;
64029;SDS011;50277;52.064;4.492;2022-10-16T07:31:07;6.05;;;2.50;;
64029;SDS011;50277;52.064;4.492;2022-10-16T07:36:01;6.30;;;2.38;;
64029;SDS011;50277;52.064;4.492;2022-10-16T07:38:26;10.23;;;2.40;;
64029;SDS011;50277;52.064;4.492;2022-10-16T07:43:23;4.38;;;1.70;;
64029;SDS011;50277;52.064;4.492;2022-10-16T07:45:49;8.38;;;1.92;;
64029;SDS011;50277;52.064;4.492;2022-10-16T07:48:15;4.97;;;2.00;;
64029;SDS011;50277;52.064;4.492;2022-10-16T07:50:41;5.00;;;1.98;;
64029;SDS011;50277;52.064;4.492;2022-10-16T07:53:07;7.97;;;2.28;;
64029;SDS011;50277;52.064;4.492;2022-10-16T07:55:33;12.90;;;2.42;;
64029;SDS011;50277;52.064;4.492;2022-10-16T07:57:58;4.85;;;2.25;;
64029;SDS011;50277;52.064;4.492;2022-10-16T08:00:23;7.15;;;2.13;;
64029;SDS011;50277;52.064;4.492;2022-10-16T08:02:49;5.60;;;1.88;;
64029;SDS011;50277;52.064;4.492;2022-10-16T08:05:14;4.18;;;2.25;;
64029;SDS011;50277;52.064;4.492;2022-10-16T08:07:40;7.20;;;2.22;;
64029;SDS011;50277;52.064;4.492;2022-10-16T08:10:05;6.80;;;2.55;;
64029;SDS011;50277;52.064;4.492;2022-10-16T08:12:30;6.22;;;2.05;;
64029;SDS011;50277;52.064;4.492;2022-10-16T08:14:56;8.20;;;2.20;;
64029;SDS011;50277;52.064;4.492;2022-10-16T08:17:21;11.85;;;2.13;;
64029;SDS011;50277;52.064;4.492;2022-10-16T08:19:47;7.72;;;2.40;;
64029;SDS011;50277;52.064;4.492;2022-10-16T08:22:13;9.13;;;2.15;;
64029;SDS011;50277;52.064;4.492;2022-10-16T08:24:39;4.75;;;2.00;;
64029;SDS011;50277;52.064;4.492;2022-10-16T08:27:04;12.02;;;2.85;;
64029;SDS011;50277;52.064;4.492;2022-10-16T08:29:30;7.95;;;3.33;;
64029;SDS011;50277;52.064;4.492;2022-10-16T08:31:56;7.35;;;2.53;;
64029;SDS011;50277;52.064;4.492;2022-10-16T08:34:21;11.38;;;3.03;;
64029;SDS011;50277;52.064;4.492;2022-10-16T08:36:46;6.93;;;2.40;;
64029;SDS011;50277;52.064;4.492;2022-10-16T08:39:12;7.90;;;2.80;;
64029;SDS011;50277;52.064;4.492;2022-10-16T08:44:44;6.03;;;2.20;;
64029;SDS011;50277;52.064;4.492;2022-10-16T08:47:25;7.53;;;2.58;;
64029;SDS011;50277;52.064;4.492;2022-10-16T08:49:56;8.68;;;2.80;;
64029;SDS011;50277;52.064;4.492;2022-10-16T08:52:23;6.63;;;2.38;;
64029;SDS011;50277;52.064;4.492;2022-10-16T08:54:51;7.95;;;3.80;;
64029;SDS011;50277;52.064;4.492;2022-10-16T08:57:20;6.40;;;2.95;;
64029;SDS011;50277;52.064;4.492;2022-10-16T08:59:46;9.35;;;2.30;;
64029;SDS011;50277;52.064;4.492;2022-10-16T09:02:18;7.35;;;2.78;;
64029;SDS011;50277;52.064;4.492;2022-10-16T09:13:31;11.85;;;2.95;;
64029;SDS011;50277;52.064;4.492;2022-10-16T09:16:01;5.30;;;2.53;;
64029;SDS011;50277;52.064;4.492;2022-10-16T09:23:43;8.85;;;2.92;;
64029;SDS011;50277;52.064;4.492;2022-10-16T09:26:12;9.93;;;2.50;;
64029;SDS011;50277;52.064;4.492;2022-10-16T09:28:39;11.02;;;3.42;;
64029;SDS011;50277;52.064;4.492;2022-10-16T09:31:04;9.27;;;2.65;;
64029;SDS011;50277;52.064;4.492;2022-10-16T09:33:33;6.82;;;3.13;;
64029;SDS011;50277;52.064;4.492;2022-10-16T09:36:00;12.90;;;3.13;;
64029;SDS011;50277;52.064;4.492;2022-10-16T09:38:32;7.95;;;2.55;;
64029;SDS011;50277;52.064;4.492;2022-10-16T09:41:14;10.80;;;2.47;;
64029;SDS011;50277;52.064;4.492;2022-10-16T09:43:47;16.00;;;4.05;;
64029;SDS011;50277;52.064;4.492;2022-10-16T09:46:30;8.25;;;3.70;;
64029;SDS011;50277;52.064;4.492;2022-10-16T09:48:58;7.20;;;2.65;;
64029;SDS011;50277;52.064;4.492;2022-10-16T09:51:29;8.45;;;3.47;;
64029;SDS011;50277;52.064;4.492;2022-10-16T09:54:20;10.38;;;3.53;;
64029;SDS011;50277;52.064;4.492;2022-10-16T09:56:45;10.00;;;3.35;;
64029;SDS011;50277;52.064;4.492;2022-10-16T09:59:21;10.05;;;2.92;;
64029;SDS011;50277;52.064;4.492;2022-10-16T10:04:18;12.32;;;2.83;;
64029;SDS011;50277;52.064;4.492;2022-10-16T10:06:51;8.27;;;2.55;;
64029;SDS011;50277;52.064;4.492;2022-10-16T10:11:54;8.18;;;2.97;;
64029;SDS011;50277;52.064;4.492;2022-10-16T10:19:36;9.70;;;3.10;;
64029;SDS011;50277;52.064;4.492;2022-10-16T10:33:12;5.20;;;2.47;;
64029;SDS011;50277;52.064;4.492;2022-10-16T10:46:36;11.93;;;3.00;;
64029;SDS011;50277;52.064;4.492;2022-10-16T10:54:55;9.75;;;3.15;;
64029;SDS011;50277;52.064;4.492;2022-10-16T11:07:57;11.88;;;3.75;;
64029;SDS011;50277;52.064;4.492;2022-10-16T11:10:25;9.48;;;3.42;;
64029;SDS011;50277;52.064;4.492;2022-10-16T11:12:55;10.43;;;3.17;;
64029;SDS011;50277;52.064;4.492;2022-10-16T11:17:55;9.07;;;2.95;;
64029;SDS011;50277;52.064;4.492;2022-10-16T11:20:28;7.63;;;2.95;;
64029;SDS011;50277;52.064;4.492;2022-10-16T11:22:58;8.68;;;3.00;;
64029;SDS011;50277;52.064;4.492;2022-10-16T11:25:32;10.32;;;2.90;;
64029;SDS011;50277;52.064;4.492;2022-10-16T11:28:02;7.45;;;2.72;;
64029;SDS011;50277;52.064;4.492;2022-10-16T11:30:43;8.05;;;2.80;;
64029;SDS011;50277;52.064;4.492;2022-10-16T11:40:52;9.00;;;2.95;;
64029;SDS011;50277;52.064;4.492;2022-10-16T11:43:24;9.70;;;2.63;;
64029;SDS011;50277;52.064;4.492;2022-10-16T11:45:52;11.90;;;2.88;;
64029;SDS011;50277;52.064;4.492;2022-10-16T11:51:05;11.23;;;3.22;;
64029;SDS011;50277;52.064;4.492;2022-10-16T11:56:19;9.10;;;3.00;;
64029;SDS011;50277;52.064;4.492;2022-10-16T12:04:01;13.65;;;2.60;;
64029;SDS011;50277;52.064;4.492;2022-10-16T12:09:02;11.40;;;2.63;;
64029;SDS011;50277;52.064;4.492;2022-10-16T12:14:06;8.10;;;2.50;;
64029;SDS011;50277;52.064;4.492;2022-10-16T12:16:32;5.95;;;1.75;;
64029;SDS011;50277;52.064;4.492;2022-10-16T12:19:11;9.93;;;2.53;;
64029;SDS011;50277;52.064;4.492;2022-10-16T12:21:38;5.30;;;2.50;;
64029;SDS011;50277;52.064;4.492;2022-10-16T12:24:04;10.27;;;2.60;;
64029;SDS011;50277;52.064;4.492;2022-10-16T12:26:31;6.03;;;1.83;;
64029;SDS011;50277;52.064;4.492;2022-10-16T12:29:17;10.38;;;2.35;;
64029;SDS011;50277;52.064;4.492;2022-10-16T12:31:48;10.50;;;3.00;;
64029;SDS011;50277;52.064;4.492;2022-10-16T12:34:26;9.32;;;2.63;;
64029;SDS011;50277;52.064;4.492;2022-10-16T12:36:54;7.65;;;2.45;;
64029;SDS011;50277;52.064;4.492;2022-10-16T12:39:20;8.75;;;2.50;;
64029;SDS011;50277;52.064;4.492;2022-10-16T12:42:17;7.90;;;2.75;;
64029;SDS011;50277;52.064;4.492;2022-10-16T12:44:45;11.05;;;2.42;;
64029;SDS011;50277;52.064;4.492;2022-10-16T12:49:51;8.30;;;2.60;;
64029;SDS011;50277;52.064;4.492;2022-10-16T12:52:37;9.93;;;2.80;;
64029;SDS011;50277;52.064;4.492;2022-10-16T12:55:04;14.63;;;2.67;;
64029;SDS011;50277;52.064;4.492;2022-10-16T13:05:30;12.15;;;3.20;;
64029;SDS011;50277;52.064;4.492;2022-10-16T13:08:05;12.40;;;2.85;;
64029;SDS011;50277;52.064;4.492;2022-10-16T13:26:22;7.80;;;2.22;;
64029;SDS011;50277;52.064;4.492;2022-10-16T13:28:49;8.35;;;2.67;;
64029;SDS011;50277;52.064;4.492;2022-10-16T13:31:15;11.30;;;2.83;;
64029;SDS011;50277;52.064;4.492;2022-10-16T13:33:45;8.13;;;2.47;;
64029;SDS011;50277;52.064;4.492;2022-10-16T13:36:20;14.52;;;2.88;;
64029;SDS011;50277;52.064;4.492;2022-10-16T13:38:45;10.25;;;2.90;;
64029;SDS011;50277;52.064;4.492;2022-10-16T13:41:15;8.10;;;2.42;;
64029;SDS011;50277;52.064;4.492;2022-10-16T13:43:43;7.95;;;3.05;;
64029;SDS011;50277;52.064;4.492;2022-10-16T13:46:18;10.50;;;2.90;;
64029;SDS011;50277;52.064;4.492;2022-10-16T13:48:45;8.80;;;2.38;;
64029;SDS011;50277;52.064;4.492;2022-10-16T13:51:31;15.60;;;2.95;;
64029;SDS011;50277;52.064;4.492;2022-10-16T13:53:57;16.27;;;2.50;;
64029;SDS011;50277;52.064;4.492;2022-10-16T13:56:25;10.38;;;2.58;;
64029;SDS011;50277;52.064;4.492;2022-10-16T13:58:59;11.50;;;2.70;;
64029;SDS011;50277;52.064;4.492;2022-10-16T14:01:35;14.55;;;3.15;;
64029;SDS011;50277;52.064;4.492;2022-10-16T14:04:06;11.68;;;3.05;;
64029;SDS011;50277;52.064;4.492;2022-10-16T14:06:33;15.88;;;3.10;;
64029;SDS011;50277;52.064;4.492;2022-10-16T14:09:07;10.95;;;3.15;;
64029;SDS011;50277;52.064;4.492;2022-10-16T14:11:42;8.80;;;2.40;;
64029;SDS011;50277;52.064;4.492;2022-10-16T14:14:11;10.38;;;2.90;;
64029;SDS011;50277;52.064;4.492;2022-10-16T14:16:37;12.77;;;2.80;;
64029;SDS011;50277;52.064;4.492;2022-10-16T14:19:06;11.38;;;3.05;;
64029;SDS011;50277;52.064;4.492;2022-10-16T14:21:33;10.50;;;2.72;;
64029;SDS011;50277;52.064;4.492;2022-10-16T14:23:59;7.35;;;2.47;;
64029;SDS011;50277;52.064;4.492;2022-10-16T14:26:40;8.98;;;2.90;;
64029;SDS011;50277;52.064;4.492;2022-10-16T14:29:10;9.38;;;2.67;;
64029;SDS011;50277;52.064;4.492;2022-10-16T14:31:38;10.98;;;3.53;;
64029;SDS011;50277;52.064;4.492;2022-10-16T14:34:04;11.18;;;3.13;;
64029;SDS011;50277;52.064;4.492;2022-10-16T14:36:47;7.05;;;2.35;;
64029;SDS011;50277;52.064;4.492;2022-10-16T14:39:22;9.55;;;3.13;;
64029;SDS011;50277;52.064;4.492;2022-10-16T14:41:48;14.85;;;3.50;;
64029;SDS011;50277;52.064;4.492;2022-10-16T14:44:15;11.18;;;3.60;;
64029;SDS011;50277;52.064;4.492;2022-10-16T14:46:42;10.67;;;2.57;;
64029;SDS011;50277;52.064;4.492;2022-10-16T14:51:34;15.23;;;3.75;;
64029;SDS011;50277;52.064;4.492;2022-10-16T14:53:59;12.68;;;3.78;;
64029;SDS011;50277;52.064;4.492;2022-10-16T14:56:25;8.07;;;2.35;;
64029;SDS011;50277;52.064;4.492;2022-10-16T14:58:56;10.65;;;3.33;;
64029;SDS011;50277;52.064;4.492;2022-10-16T15:01:22;15.60;;;2.97;;
64029;SDS011;50277;52.064;4.492;2022-10-16T15:03:47;12.90;;;3.00;;
64029;SDS011;50277;52.064;4.492;2022-10-16T15:06:14;13.55;;;3.38;;
64029;SDS011;50277;52.064;4.492;2022-10-16T15:08:40;15.18;;;3.70;;
64029;SDS011;50277;52.064;4.492;2022-10-16T15:11:12;13.02;;;3.22;;
64029;SDS011;50277;52.064;4.492;2022-10-16T15:13:39;13.45;;;3.13;;
64029;SDS011;50277;52.064;4.492;2022-10-16T15:16:04;9.77;;;3.08;;
64029;SDS011;50277;52.064;4.492;2022-10-16T15:18:30;11.43;;;3.08;;
64029;SDS011;50277;52.064;4.492;2022-10-16T15:20:55;14.10;;;3.50;;
64029;SDS011;50277;52.064;4.492;2022-10-16T15:23:21;13.30;;;2.95;;
64029;SDS011;50277;52.064;4.492;2022-10-16T15:25:47;14.48;;;4.72;;
64029;SDS011;50277;52.064;4.492;2022-10-16T15:28:17;10.82;;;3.22;;
64029;SDS011;50277;52.064;4.492;2022-10-16T15:30:43;15.30;;;4.22;;
64029;SDS011;50277;52.064;4.492;2022-10-16T15:33:28;9.38;;;3.53;;
64029;SDS011;50277;52.064;4.492;2022-10-16T15:35:57;14.65;;;3.70;;
64029;SDS011;50277;52.064;4.492;2022-10-16T15:38:23;15.77;;;4.40;;
64029;SDS011;50277;52.064;4.492;2022-10-16T15:40:48;13.73;;;3.20;;
64029;SDS011;50277;52.064;4.492;2022-10-16T15:43:14;11.80;;;3.65;;
64029;SDS011;50277;52.064;4.492;2022-10-16T15:45:39;9.90;;;3.75;;
64029;SDS011;50277;52.064;4.492;2022-10-16T15:48:05;9.57;;;3.30;;
64029;SDS011;50277;52.064;4.492;2022-10-16T15:50:31;14.52;;;3.80;;
64029;SDS011;50277;52.064;4.492;2022-10-16T15:52:57;14.98;;;4.15;;
64029;SDS011;50277;52.064;4.492;2022-10-16T15:55:22;17.33;;;4.20;;
64029;SDS011;50277;52.064;4.492;2022-10-16T15:57:47;16.05;;;4.32;;
64029;SDS011;50277;52.064;4.492;2022-10-16T16:00:14;13.55;;;3.58;;
64029;SDS011;50277;52.064;4.492;2022-10-16T16:02:42;10.88;;;3.72;;
64029;SDS011;50277;52.064;4.492;2022-10-16T16:05:09;14.10;;;4.07;;
64029;SDS011;50277;52.064;4.492;2022-10-16T16:07:36;12.57;;;3.95;;
64029;SDS011;50277;52.064;4.492;2022-10-16T16:10:03;10.90;;;4.40;;
64029;SDS011;50277;52.064;4.492;2022-10-16T16:12:30;16.67;;;6.05;;
64029;SDS011;50277;52.064;4.492;2022-10-16T16:14:56;16.63;;;5.55;;
64029;SDS011;50277;52.064;4.492;2022-10-16T16:17:21;16.83;;;4.15;;
64029;SDS011;50277;52.064;4.492;2022-10-16T16:19:46;15.82;;;3.50;;
64029;SDS011;50277;52.064;4.492;2022-10-16T16:22:12;9.95;;;2.90;;
64029;SDS011;50277;52.064;4.492;2022-10-16T16:24:37;14.60;;;3.38;;
64029;SDS011;50277;52.064;4.492;2022-10-16T16:27:03;13.90;;;3.58;;
64029;SDS011;50277;52.064;4.492;2022-10-16T16:29:28;15.50;;;3.13;;
64029;SDS011;50277;52.064;4.492;2022-10-16T16:31:54;13.68;;;3.38;;
64029;SDS011;50277;52.064;4.492;2022-10-16T16:34:23;9.75;;;2.90;;
64029;SDS011;50277;52.064;4.492;2022-10-16T16:36:49;12.18;;;4.15;;
64029;SDS011;50277;52.064;4.492;2022-10-16T16:39:15;13.52;;;3.78;;
64029;SDS011;50277;52.064;4.492;2022-10-16T16:41:40;11.98;;;3.60;;
64029;SDS011;50277;52.064;4.492;2022-10-16T16:44:06;10.77;;;3.15;;
64029;SDS011;50277;52.064;4.492;2022-10-16T16:46:33;9.52;;;3.42;;
64029;SDS011;50277;52.064;4.492;2022-10-16T16:48:59;6.68;;;2.53;;
64029;SDS011;50277;52.064;4.492;2022-10-16T16:51:25;18.00;;;3.85;;
64029;SDS011;50277;52.064;4.492;2022-10-16T16:53:51;21.35;;;4.85;;
64029;SDS011;50277;52.064;4.492;2022-10-16T16:56:18;14.70;;;4.15;;
64029;SDS011;50277;52.064;4.492;2022-10-16T16:58:47;12.50;;;4.32;;
64029;SDS011;50277;52.064;4.492;2022-10-16T17:01:13;13.27;;;3.85;;
64029;SDS011;50277;52.064;4.492;2022-10-16T17:03:41;12.50;;;4.20;;
64029;SDS011;50277;52.064;4.492;2022-10-16T17:06:09;13.85;;;5.25;;
64029;SDS011;50277;52.064;4.492;2022-10-16T17:08:35;19.17;;;5.47;;